Terminal Aerodrome Forecast
Issued by NWS

Home | Current Version | Previous Version | Text Only | Print | Product List | Glossary On
Versions: 1 2 3 4 5 6 7 8 9 10 11 12 13 14 15 16 17 18 19 20 21 22 23 24 25
000
FTUS43 KDLH 281300 AAA
TAFHIB
TAF AMD
KHIB 281342Z 2814/2912 27005KT P6SM OVC015
      TEMPO 2814/2816 6SM -RA BKN009
     FM281600 29012G20KT P6SM VCSH BKN009
     FM281900 29015G25KT P6SM -SHRA OVC015
     FM290200 31012G19KT P6SM -RASN OVC015
     FM290600 32010KT P6SM -SN OVC015=

USA.gov is the U.S. government's official web portal to all federal, state and local government web resources and services.